createdAt,value
2018-05-04T00:01:36.248Z,68.21
2018-05-04T00:04:03.801Z,67.67
2018-05-04T00:06:31.534Z,67.86
2018-05-04T00:08:59.069Z,67.82
2018-05-04T00:11:26.618Z,67.24
2018-05-04T00:13:54.213Z,67.69
2018-05-04T00:16:21.751Z,67.87
2018-05-04T00:18:49.320Z,67.40
2018-05-04T00:21:16.888Z,67.80
2018-05-04T00:23:44.435Z,67.56
2018-05-04T00:26:11.995Z,67.17
2018-05-04T00:28:39.572Z,67.27
2018-05-04T00:31:07.115Z,67.63
2018-05-04T00:33:34.667Z,67.71
2018-05-04T00:36:02.231Z,68.49
2018-05-04T00:38:29.774Z,68.73
2018-05-04T00:40:57.337Z,68.98
2018-05-04T00:43:25.135Z,69.21
2018-05-04T00:45:52.645Z,69.37
2018-05-04T00:48:20.183Z,69.98
2018-05-04T00:50:48.227Z,70.52
2018-05-04T00:53:15.770Z,70.74
2018-05-04T00:55:43.307Z,70.60
2018-05-04T00:58:11.174Z,70.35
2018-05-04T01:00:38.707Z,68.68
2018-05-04T01:03:06.256Z,67.49
2018-05-04T01:05:33.835Z,66.12
2018-05-04T01:08:01.404Z,65.17
2018-05-04T01:10:28.943Z,64.75
2018-05-04T01:12:56.662Z,65.18
2018-05-04T01:15:24.216Z,64.44
2018-05-04T01:17:51.765Z,64.11
2018-05-04T01:20:19.440Z,64.16
2018-05-04T01:22:46.989Z,64.41
2018-05-04T01:25:14.536Z,64.61
2018-05-04T01:27:42.115Z,64.72
2018-05-04T01:30:09.665Z,65.91
2018-05-04T01:32:37.221Z,67.39
2018-05-04T01:35:04.947Z,68.41
2018-05-04T01:37:32.502Z,69.11
2018-05-04T01:40:00.076Z,69.98
2018-05-04T01:42:27.628Z,70.57
2018-05-04T01:44:55.190Z,70.34
2018-05-04T01:47:22.744Z,70.78
2018-05-04T01:49:50.317Z,70.89
2018-05-04T01:52:17.869Z,70.98
2018-05-04T01:54:45.412Z,71.19
2018-05-04T01:57:12.989Z,71.63
2018-05-04T01:59:40.528Z,71.68
2018-05-04T02:02:08.070Z,71.93
2018-05-04T02:04:35.697Z,72.13
2018-05-04T02:07:03.251Z,72.08
2018-05-04T02:09:30.795Z,72.08
2018-05-04T02:11:58.355Z,72.06
2018-05-04T02:14:25.919Z,71.79
2018-05-04T02:16:53.619Z,71.83
2018-05-04T02:19:21.180Z,71.96
2018-05-04T02:21:48.715Z,72.01
2018-05-04T02:24:16.277Z,72.05
2018-05-04T02:26:43.826Z,72.57
2018-05-04T02:29:11.364Z,72.93
2018-05-04T02:31:39.059Z,73.33
2018-05-04T02:34:06.596Z,73.42
2018-05-04T02:36:34.143Z,73.47
2018-05-04T02:39:01.720Z,73.71
2018-05-04T02:41:29.269Z,74.07
2018-05-04T02:43:56.837Z,74.24
2018-05-04T02:46:24.496Z,74.18
2018-05-04T02:48:52.033Z,74.40
2018-05-04T02:51:19.589Z,74.53
2018-05-04T02:53:47.196Z,74.50
2018-05-04T02:56:14.733Z,74.50
2018-05-04T02:58:42.285Z,74.81
2018-05-04T03:01:09.863Z,75.05
2018-05-04T03:03:37.437Z,75.56
2018-05-04T03:06:04.987Z,75.46
2018-05-04T03:08:32.560Z,75.46
2018-05-04T03:11:00.110Z,75.63
2018-05-04T03:13:27.670Z,75.80
2018-05-04T03:15:55.284Z,75.91
2018-05-04T03:18:22.837Z,76.27
2018-05-04T03:20:50.377Z,75.84
2018-05-04T03:23:17.954Z,75.24
2018-05-04T03:25:45.505Z,74.82
2018-05-04T03:28:13.056Z,74.24
2018-05-04T03:30:40.775Z,74.04
2018-05-04T03:33:08.325Z,73.52
2018-05-04T03:35:35.878Z,72.77
2018-05-04T03:38:03.448Z,72.00
2018-05-04T03:40:31.004Z,71.73
2018-05-04T03:42:58.629Z,71.34
2018-05-04T03:45:26.259Z,70.69
2018-05-04T03:47:53.823Z,71.45
2018-05-04T03:50:21.388Z,72.19
2018-05-04T03:52:49.068Z,72.90
2018-05-04T03:55:16.617Z,73.52
2018-05-04T03:57:55.759Z,74.03
2018-05-04T04:00:34.999Z,74.29
2018-05-04T04:03:14.415Z,74.56
2018-05-04T04:05:41.960Z,74.53
2018-05-04T04:08:09.513Z,73.92
2018-05-04T04:10:37.077Z,73.75
2018-05-04T04:13:04.626Z,73.86
2018-05-04T04:15:32.203Z,73.43
2018-05-04T04:17:59.817Z,73.35
2018-05-04T04:20:27.319Z,73.30
2018-05-04T04:22:54.897Z,73.74
2018-05-04T04:25:22.443Z,73.84
2018-05-04T04:27:50.912Z,73.52
2018-05-04T04:30:18.632Z,73.20
2018-05-04T04:32:46.182Z,72.35
2018-05-04T04:35:13.720Z,71.83
2018-05-04T04:37:41.301Z,70.69
2018-05-04T04:40:08.851Z,69.38
2018-05-04T04:42:36.445Z,68.08
2018-05-04T04:45:04.136Z,67.13
2018-05-04T04:47:31.686Z,67.22
2018-05-04T04:49:59.230Z,67.33
2018-05-04T04:52:27.004Z,68.37
2018-05-04T04:54:54.540Z,69.50
2018-05-04T04:57:22.081Z,69.92
2018-05-04T04:59:49.653Z,70.78
2018-05-04T05:02:17.191Z,69.04
2018-05-04T05:04:44.756Z,68.62
2018-05-04T05:07:12.332Z,67.44
2018-05-04T05:09:39.881Z,67.21
2018-05-04T05:12:07.441Z,67.55
2018-05-04T05:14:35.014Z,67.65
2018-05-04T05:17:02.570Z,67.47
2018-05-04T05:19:30.123Z,67.93
2018-05-04T05:21:57.865Z,68.44
2018-05-04T05:24:25.411Z,66.62
2018-05-04T05:26:52.956Z,64.97
2018-05-04T05:29:20.634Z,62.72
2018-05-04T05:31:48.183Z,61.23
2018-05-04T05:34:15.733Z,58.66
2018-05-04T05:36:43.541Z,57.65
2018-05-04T05:39:11.101Z,57.45
2018-05-04T05:41:38.663Z,58.61
2018-05-04T05:44:06.232Z,59.17
2018-05-04T05:46:33.776Z,58.67
2018-05-04T05:49:01.341Z,59.67
2018-05-04T05:51:28.953Z,59.90
2018-05-04T05:53:56.520Z,59.76
2018-05-04T05:56:24.081Z,60.08
2018-05-04T05:58:51.995Z,60.96
2018-05-04T06:01:19.552Z,61.92
2018-05-04T06:03:47.104Z,62.95
2018-05-04T06:06:15.019Z,62.50
2018-05-04T06:08:42.562Z,59.76
2018-05-04T06:11:10.119Z,60.18
2018-05-04T06:13:37.848Z,58.67
2018-05-04T06:16:05.408Z,58.52
2018-05-04T06:18:32.947Z,58.67
2018-05-04T06:21:00.523Z,60.27
2018-05-04T06:23:28.065Z,60.69
2018-05-04T06:25:55.603Z,58.68
2018-05-04T06:28:23.194Z,56.86
2018-05-04T06:30:50.746Z,58.17
2018-05-04T06:33:18.330Z,57.21
2018-05-04T06:35:45.912Z,56.33
2018-05-04T06:38:13.451Z,56.45
2018-05-04T06:40:41.004Z,56.52
2018-05-04T06:43:08.919Z,55.97
2018-05-04T06:45:36.454Z,56.20
2018-05-04T06:48:04.009Z,56.85
2018-05-04T06:50:31.598Z,55.49
2018-05-04T06:52:59.148Z,56.14
2018-05-04T06:55:26.700Z,57.03
2018-05-04T06:57:54.317Z,57.20
2018-05-04T07:00:21.863Z,56.49
2018-05-04T07:02:49.432Z,55.83
2018-05-04T07:05:17.162Z,55.85
2018-05-04T07:07:44.727Z,54.75
2018-05-04T07:10:12.278Z,55.54
2018-05-04T07:12:39.833Z,56.13
2018-05-04T07:15:07.408Z,57.55
2018-05-04T07:17:35.156Z,56.52
2018-05-04T07:20:02.704Z,57.49
2018-05-04T07:22:30.248Z,58.33
2018-05-04T07:24:57.824Z,57.60
2018-05-04T07:27:25.378Z,57.48
2018-05-04T07:29:52.928Z,56.71
2018-05-04T07:32:20.507Z,55.89
2018-05-04T07:34:48.049Z,56.48
2018-05-04T07:37:15.609Z,55.22
2018-05-04T07:39:43.309Z,54.16
2018-05-04T07:42:10.867Z,55.58
2018-05-04T07:44:38.445Z,55.24
2018-05-04T07:47:06.044Z,54.91
2018-05-04T07:49:33.624Z,55.20
2018-05-04T07:52:01.167Z,54.50
2018-05-04T07:54:28.912Z,53.39
2018-05-04T07:56:56.480Z,52.52
2018-05-04T07:59:24.035Z,51.61
2018-05-04T08:01:51.739Z,50.69
2018-05-04T08:04:19.303Z,50.31
2018-05-04T08:06:46.874Z,51.50
2018-05-04T08:09:14.461Z,50.20
2018-05-04T08:11:42.025Z,51.57
2018-05-04T08:14:09.581Z,49.37
2018-05-04T08:16:37.174Z,49.13
2018-05-04T08:19:04.739Z,48.49
2018-05-04T08:21:32.279Z,48.06
2018-05-04T08:23:59.970Z,47.25
2018-05-04T08:26:27.522Z,46.68
2018-05-04T08:28:55.106Z,46.34
2018-05-04T08:31:22.691Z,44.61
2018-05-04T08:33:50.235Z,45.76
2018-05-04T08:36:17.789Z,46.17
2018-05-04T08:38:45.469Z,46.70
2018-05-04T08:41:13.018Z,46.86
2018-05-04T08:43:40.583Z,47.88
2018-05-04T08:46:08.213Z,47.31
2018-05-04T08:48:35.747Z,46.98
2018-05-04T08:51:03.324Z,46.39
2018-05-04T08:53:30.920Z,47.66
2018-05-04T08:55:58.483Z,47.10
2018-05-04T08:58:26.031Z,44.80
2018-05-04T09:00:53.613Z,45.77
2018-05-04T09:03:21.172Z,46.10
2018-05-04T09:05:48.743Z,46.02
2018-05-04T09:08:16.345Z,45.06
2018-05-04T09:10:43.889Z,45.39
2018-05-04T09:13:11.453Z,44.47
2018-05-04T09:15:39.035Z,45.25
2018-05-04T09:18:06.594Z,45.10
2018-05-04T09:20:34.166Z,45.28
2018-05-04T09:23:01.753Z,46.56
2018-05-04T09:25:29.315Z,47.31
2018-05-04T09:27:56.852Z,43.66
2018-05-04T09:30:24.426Z,45.29
2018-05-04T09:32:52.705Z,45.33
2018-05-04T09:35:20.256Z,44.89
2018-05-04T09:37:47.834Z,44.79
2018-05-04T09:40:15.404Z,44.66
2018-05-04T09:42:42.953Z,45.13
2018-05-04T09:45:10.663Z,44.91
2018-05-04T09:47:38.247Z,45.87
2018-05-04T09:50:05.822Z,46.45
2018-05-04T09:52:33.409Z,43.98
2018-05-04T09:55:00.963Z,43.29
2018-05-04T09:57:28.508Z,43.15
2018-05-04T09:59:56.103Z,42.61
2018-05-04T10:02:23.667Z,42.85
2018-05-04T10:04:51.227Z,43.70
2018-05-04T10:07:18.956Z,42.32
2018-05-04T10:09:46.497Z,43.57
2018-05-04T10:12:14.046Z,41.90
2018-05-04T10:14:41.767Z,41.94
2018-05-04T10:17:09.324Z,42.73
2018-05-04T10:19:36.881Z,42.11
2018-05-04T10:22:04.560Z,42.63
2018-05-04T10:24:32.115Z,43.54
2018-05-04T10:26:59.661Z,42.94
2018-05-04T10:29:27.267Z,43.54
2018-05-04T10:31:54.824Z,42.30
2018-05-04T10:34:22.392Z,43.32
2018-05-04T10:36:49.968Z,44.58
2018-05-04T10:39:17.538Z,43.61
2018-05-04T10:41:45.100Z,44.07
2018-05-04T10:44:12.788Z,42.49
2018-05-04T10:46:40.361Z,44.29
2018-05-04T10:49:07.911Z,44.29
2018-05-04T10:51:35.497Z,43.43
2018-05-04T10:54:03.070Z,44.16
2018-05-04T10:56:30.667Z,45.64
2018-05-04T10:58:58.398Z,45.25
2018-05-04T11:01:25.935Z,45.50
2018-05-04T11:03:53.480Z,46.00
2018-05-04T11:06:21.040Z,46.00
2018-05-04T11:08:48.603Z,46.11
2018-05-04T11:11:16.162Z,45.43
2018-05-04T11:13:43.916Z,45.95
2018-05-04T11:16:11.452Z,46.68
2018-05-04T11:18:39.021Z,46.00
2018-05-04T11:21:06.761Z,45.58
2018-05-04T11:23:34.308Z,47.14
2018-05-04T11:26:01.922Z,44.89
2018-05-04T11:28:29.500Z,45.14
2018-05-04T11:30:57.111Z,44.37
2018-05-04T11:33:24.640Z,44.59
2018-05-04T11:35:52.345Z,43.33
2018-05-04T11:38:19.880Z,42.31
2018-05-04T11:40:47.444Z,42.73
2018-05-04T11:43:15.187Z,42.65
2018-05-04T11:45:42.747Z,41.79
2018-05-04T11:48:10.309Z,41.16
2018-05-04T11:50:38.031Z,40.92
2018-05-04T11:53:05.571Z,40.88
2018-05-04T11:55:33.120Z,40.92
2018-05-04T11:58:01.026Z,40.46
2018-05-04T12:00:28.591Z,40.78
2018-05-04T12:02:56.138Z,40.72
2018-05-04T12:05:23.727Z,40.18
2018-05-04T12:07:51.280Z,40.93
2018-05-04T12:10:18.826Z,40.00
2018-05-04T12:12:46.460Z,39.85
2018-05-04T12:15:14.008Z,40.08
2018-05-04T12:17:41.704Z,40.49
2018-05-04T12:20:09.244Z,39.77
2018-05-04T12:22:36.801Z,40.50
2018-05-04T12:25:04.382Z,40.82
2018-05-04T12:27:31.925Z,42.22
2018-05-04T12:29:59.461Z,41.30
2018-05-04T12:32:27.228Z,40.36
2018-05-04T12:34:54.788Z,40.76
2018-05-04T12:37:22.609Z,42.15
2018-05-04T12:39:50.176Z,42.29
2018-05-04T12:42:17.725Z,42.53
2018-05-04T12:44:45.273Z,41.97
2018-05-04T12:47:12.983Z,42.24
2018-05-04T12:49:40.526Z,42.12
2018-05-04T12:52:08.073Z,42.48
2018-05-04T12:54:35.648Z,42.50
2018-05-04T12:57:03.197Z,42.63
2018-05-04T12:59:30.732Z,43.40
2018-05-04T13:01:58.309Z,43.73
2018-05-04T13:04:25.895Z,44.52
2018-05-04T13:06:53.419Z,42.52
2018-05-04T13:09:20.992Z,43.36
2018-05-04T13:11:48.571Z,43.44
2018-05-04T13:14:16.144Z,42.02
2018-05-04T13:16:43.756Z,44.67
2018-05-04T13:19:11.299Z,46.20
2018-05-04T13:21:38.848Z,48.90
2018-05-04T13:24:06.568Z,48.72
2018-05-04T13:26:34.105Z,49.90
2018-05-04T13:29:01.721Z,50.87
2018-05-04T13:31:29.250Z,51.59
2018-05-04T13:33:56.822Z,51.78
2018-05-04T13:36:24.377Z,51.71
2018-05-04T13:38:51.949Z,51.63
2018-05-04T13:41:19.504Z,51.84
2018-05-04T13:43:47.060Z,52.69
2018-05-04T13:46:14.635Z,53.06
2018-05-04T13:48:42.185Z,51.11
2018-05-04T13:51:09.747Z,47.89
2018-05-04T13:53:37.481Z,49.90
2018-05-04T13:56:05.062Z,50.12
2018-05-04T13:58:32.619Z,50.50
2018-05-04T14:01:00.549Z,50.21
2018-05-04T14:03:28.117Z,49.76
2018-05-04T14:05:55.696Z,50.48
2018-05-04T14:08:23.408Z,51.48
2018-05-04T14:10:50.957Z,52.40
2018-05-04T14:13:18.502Z,52.69
2018-05-04T14:15:46.101Z,54.11
2018-05-04T14:18:13.662Z,54.48
2018-05-04T14:20:41.209Z,54.97
2018-05-04T14:23:08.784Z,54.92
2018-05-04T14:25:36.354Z,55.65
2018-05-04T14:28:03.900Z,57.03
2018-05-04T14:30:31.486Z,57.30
2018-05-04T14:32:59.041Z,57.13
2018-05-04T14:35:26.605Z,59.15
2018-05-04T14:37:54.195Z,57.07
2018-05-04T14:40:21.739Z,57.30
2018-05-04T14:42:49.301Z,59.72
2018-05-04T14:45:17.219Z,61.05
2018-05-04T14:47:44.768Z,60.33
2018-05-04T14:50:12.336Z,60.10
2018-05-04T14:52:40.010Z,58.05
2018-05-04T14:55:07.580Z,53.35
2018-05-04T14:57:35.147Z,51.13
2018-05-04T15:00:02.737Z,49.27
2018-05-04T15:02:30.299Z,48.47
2018-05-04T15:04:57.855Z,53.95
2018-05-04T15:07:25.434Z,58.99
2018-05-04T15:09:53.015Z,58.65
2018-05-04T15:12:20.556Z,56.14
2018-05-04T15:14:48.150Z,54.77
2018-05-04T15:17:15.729Z,54.25
2018-05-04T15:19:43.276Z,54.63
2018-05-04T15:22:10.887Z,50.30
2018-05-04T15:24:38.436Z,46.81
2018-05-04T15:27:05.992Z,45.51
2018-05-04T15:29:33.644Z,44.98
2018-05-04T15:32:01.193Z,44.12
2018-05-04T15:34:28.775Z,43.32
2018-05-04T15:36:56.513Z,44.02
2018-05-04T15:39:24.065Z,42.96
2018-05-04T15:41:51.605Z,43.47
2018-05-04T15:44:19.168Z,43.14
2018-05-04T15:46:46.731Z,43.55
2018-05-04T15:49:18.720Z,44.56
2018-05-04T15:52:04.237Z,46.35
2018-05-04T15:54:31.783Z,46.78
2018-05-04T15:56:59.628Z,45.84
2018-05-04T15:59:27.325Z,45.10
2018-05-04T16:01:54.870Z,45.28
2018-05-04T16:04:22.416Z,44.78
2018-05-04T16:06:50.192Z,45.69
2018-05-04T16:09:17.737Z,45.54
2018-05-04T16:11:45.294Z,45.31
2018-05-04T16:14:12.884Z,44.10
2018-05-04T16:16:40.443Z,44.11
2018-05-04T16:19:07.996Z,43.60
2018-05-04T16:21:35.601Z,44.59
2018-05-04T16:24:03.145Z,44.29
2018-05-04T16:26:30.693Z,43.59
2018-05-04T16:28:58.304Z,43.31
2018-05-04T16:31:25.869Z,43.09
2018-05-04T16:33:53.419Z,43.14
2018-05-04T16:36:21.123Z,43.22
2018-05-04T16:38:48.705Z,41.58
2018-05-04T16:41:16.262Z,40.73
2018-05-04T16:43:43.981Z,42.81
2018-05-04T16:46:17.102Z,49.18
2018-05-04T16:48:50.155Z,52.30
2018-05-04T16:51:17.745Z,52.91
2018-05-04T16:53:45.321Z,53.08
2018-05-04T16:56:12.910Z,54.14
2018-05-04T16:58:40.486Z,54.66
2018-05-04T17:01:08.035Z,55.19
2018-05-04T17:03:35.620Z,55.97
2018-05-04T17:06:03.203Z,56.42
2018-05-04T17:08:30.777Z,57.55
2018-05-04T17:10:58.371Z,57.91
2018-05-04T17:13:25.947Z,58.20
2018-05-04T17:15:53.561Z,57.70
2018-05-04T17:18:21.114Z,57.59
2018-05-04T17:20:48.681Z,58.16
2018-05-04T17:23:16.241Z,58.16
2018-05-04T17:25:43.864Z,58.31
2018-05-04T17:28:11.410Z,58.36
2018-05-04T17:30:38.959Z,58.59
2018-05-04T17:33:06.870Z,58.76
2018-05-04T17:35:34.419Z,59.41
2018-05-04T17:38:01.971Z,58.52
2018-05-04T17:40:29.792Z,59.32
2018-05-04T17:42:57.904Z,59.40
2018-05-04T17:45:25.482Z,59.30
2018-05-04T17:47:53.061Z,58.25
2018-05-04T17:50:20.613Z,58.12
2018-05-04T17:52:48.152Z,58.47
2018-05-04T17:55:15.724Z,59.41
2018-05-04T17:57:43.288Z,59.18
2018-05-04T18:00:10.831Z,59.23
2018-05-04T18:02:38.533Z,59.21
2018-05-04T18:05:06.110Z,59.39
2018-05-04T18:07:33.651Z,58.81
2018-05-04T18:10:01.446Z,58.29
2018-05-04T18:12:29.031Z,58.67
2018-05-04T18:14:56.592Z,59.17
2018-05-04T18:17:24.342Z,59.17
2018-05-04T18:19:51.962Z,59.32
2018-05-04T18:22:19.547Z,59.97
2018-05-04T18:24:47.504Z,60.42
2018-05-04T18:27:15.086Z,60.70
2018-05-04T18:29:42.636Z,60.83
2018-05-04T18:32:10.377Z,61.25
2018-05-04T18:34:37.946Z,61.30
2018-05-04T18:37:05.537Z,61.29
2018-05-04T18:39:33.233Z,61.67
2018-05-04T18:42:00.804Z,62.14
2018-05-04T18:44:28.367Z,62.48
2018-05-04T18:46:56.119Z,62.56
2018-05-04T18:49:23.672Z,62.04
2018-05-04T18:51:51.229Z,61.80
2018-05-04T18:54:18.954Z,61.28
2018-05-04T18:56:46.614Z,60.07
2018-05-04T18:59:14.187Z,59.35
2018-05-04T19:01:41.956Z,57.73
2018-05-04T19:04:09.568Z,56.30
2018-05-04T19:06:37.168Z,54.85
2018-05-04T19:09:04.983Z,53.45
2018-05-04T19:11:32.598Z,52.38
2018-05-04T19:14:00.138Z,55.07
2018-05-04T19:16:27.709Z,56.21
2018-05-04T19:18:55.268Z,56.59
2018-05-04T19:21:22.821Z,54.60
2018-05-04T19:23:50.411Z,53.43
2018-05-04T19:26:18.007Z,57.00
2018-05-04T19:28:45.555Z,57.64
2018-05-04T19:31:13.196Z,58.46
2018-05-04T19:33:40.739Z,58.66
2018-05-04T19:36:09.253Z,55.93
2018-05-04T19:38:37.178Z,54.02
2018-05-04T19:41:04.743Z,51.49
2018-05-04T19:43:32.325Z,50.26
2018-05-04T19:46:00.231Z,50.06
2018-05-04T19:48:27.810Z,49.57
2018-05-04T19:50:55.386Z,48.87
2018-05-04T19:53:22.962Z,48.45
2018-05-04T19:55:50.511Z,48.24
2018-05-04T19:58:18.071Z,47.86
2018-05-04T20:00:46.029Z,47.21
2018-05-04T20:03:13.584Z,46.79
2018-05-04T20:05:41.119Z,46.54
2018-05-04T20:08:08.856Z,45.72
2018-05-04T20:10:36.436Z,46.35
2018-05-04T20:13:04.012Z,46.71
2018-05-04T20:15:31.603Z,46.55
2018-05-04T20:17:59.148Z,46.49
2018-05-04T20:20:26.753Z,46.24
2018-05-04T20:22:54.453Z,45.24
2018-05-04T20:25:22.004Z,46.38
2018-05-04T20:27:49.536Z,45.67
2018-05-04T20:30:17.096Z,45.33
2018-05-04T20:32:44.632Z,45.32
2018-05-04T20:35:12.191Z,44.53
2018-05-04T20:37:39.817Z,44.54
2018-05-04T20:40:07.391Z,44.27
2018-05-04T20:42:34.982Z,44.53
2018-05-04T20:45:02.563Z,44.12
2018-05-04T20:47:30.115Z,44.01
2018-05-04T20:49:57.705Z,43.71
2018-05-04T20:52:25.273Z,43.18
2018-05-04T20:54:52.852Z,43.42
2018-05-04T20:57:20.416Z,43.40
2018-05-04T20:59:48.080Z,43.05
2018-05-04T21:02:15.614Z,42.70
2018-05-04T21:04:43.181Z,41.92
2018-05-04T21:07:10.773Z,41.66
2018-05-04T21:09:38.353Z,39.88
2018-05-04T21:12:05.895Z,39.69
2018-05-04T21:14:33.694Z,40.25
2018-05-04T21:17:01.245Z,38.46
2018-05-04T21:19:28.788Z,37.97
2018-05-04T21:21:56.359Z,38.25
2018-05-04T21:24:23.910Z,38.76
2018-05-04T21:26:51.455Z,39.80
2018-05-04T21:29:19.039Z,40.23
2018-05-04T21:31:46.599Z,38.58
2018-05-04T21:34:14.142Z,39.90
2018-05-04T21:36:41.888Z,37.79
2018-05-04T21:39:09.458Z,38.08
2018-05-04T21:41:37.022Z,38.55
2018-05-04T21:44:04.742Z,39.53
2018-05-04T21:46:32.276Z,38.88
2018-05-04T21:48:59.826Z,39.01
2018-05-04T21:51:27.425Z,39.25
2018-05-04T21:53:54.974Z,38.76
2018-05-04T21:56:22.503Z,38.63
2018-05-04T21:58:50.082Z,38.55
2018-05-04T22:01:17.636Z,38.39
2018-05-04T22:03:45.164Z,37.64
2018-05-04T22:06:12.737Z,38.35
2018-05-04T22:08:40.272Z,37.84
2018-05-04T22:11:07.824Z,43.85
2018-05-04T22:13:35.373Z,46.80
2018-05-04T22:16:02.935Z,47.72
2018-05-04T22:18:30.521Z,49.85
2018-05-04T22:20:58.113Z,50.90
2018-05-04T22:23:25.660Z,51.60
2018-05-04T22:25:53.245Z,52.93
2018-05-04T22:28:20.789Z,54.67
2018-05-04T22:30:48.340Z,54.99
2018-05-04T22:33:15.903Z,55.22
2018-05-04T22:35:43.469Z,55.82
2018-05-04T22:38:11.020Z,56.76
2018-05-04T22:40:38.615Z,57.30
2018-05-04T22:43:06.208Z,58.11
2018-05-04T22:45:33.769Z,58.55
2018-05-04T22:48:01.460Z,58.93
2018-05-04T22:50:29.021Z,59.57
2018-05-04T22:52:56.568Z,60.14
2018-05-04T22:55:24.241Z,60.86
2018-05-04T22:57:51.779Z,61.00
2018-05-04T23:00:19.368Z,61.21
2018-05-04T23:02:47.450Z,62.15
2018-05-04T23:05:14.996Z,62.83
2018-05-04T23:07:42.570Z,62.79
2018-05-04T23:10:10.322Z,62.94
2018-05-04T23:12:37.874Z,63.22
2018-05-04T23:15:05.416Z,63.49
2018-05-04T23:17:33.186Z,63.78
2018-05-04T23:20:00.746Z,63.92
2018-05-04T23:22:29.256Z,63.90
2018-05-04T23:24:56.991Z,64.31
2018-05-04T23:27:24.547Z,64.52
2018-05-04T23:29:52.118Z,64.56
2018-05-04T23:32:19.684Z,64.66
2018-05-04T23:34:47.265Z,65.27
2018-05-04T23:37:14.803Z,65.77
2018-05-04T23:39:43.052Z,65.91
2018-05-04T23:42:10.602Z,66.30
2018-05-04T23:44:38.142Z,66.45
2018-05-04T23:47:05.745Z,66.43
2018-05-04T23:49:33.296Z,66.61
2018-05-04T23:52:00.849Z,66.88
2018-05-04T23:54:28.420Z,66.80
2018-05-04T23:56:55.971Z,67.01
2018-05-04T23:59:23.524Z,67.20
